Time;durP1;ratioP1;P1;durP2;ratioP2;P2;SDS_P1;SDS_P2;PMS_P1;PMS_P2;Temp;Humidity;BMP_temperature;BMP_pressure;BME280_temperature;BME280_humidity;BME280_pressure;Samples;Min_cycle;Max_cycle;Signal;HPM_P1;HPM_P2
2022/07/24 00:02:20;;;;;;;8.93;5.40;;;28.50;48.10;;;;;;5052548;28;20198;-73
2022/07/24 00:04:56;;;;;;;13.10;4.87;;;28.40;47.90;;;;;;5044443;28;20215;-73
2022/07/24 00:07:24;;;;;;;8.53;5.80;;;28.40;48.00;;;;;;5050256;28;20229;-73
2022/07/24 00:09:51;;;;;;;8.00;5.23;;;28.40;48.40;;;;;;5051651;28;20203;-73
2022/07/24 00:12:18;;;;;;;7.53;5.20;;;28.40;49.00;;;;;;5045604;28;20634;-73
2022/07/24 00:14:45;;;;;;;10.30;5.13;;;28.30;48.60;;;;;;5046884;28;20657;-73
2022/07/24 00:17:12;;;;;;;9.77;5.50;;;28.30;48.50;;;;;;5049429;28;20221;-73
2022/07/24 00:19:39;;;;;;;11.53;5.33;;;28.30;48.90;;;;;;5047053;28;20210;-73
2022/07/24 00:22:06;;;;;;;8.77;5.23;;;28.30;49.80;;;;;;5044262;28;20540;-73
2022/07/24 00:24:33;;;;;;;7.00;4.43;;;28.30;50.80;;;;;;5046622;28;20202;-74
2022/07/24 00:27:00;;;;;;;9.30;5.57;;;28.30;51.70;;;;;;5048554;28;20238;-73
2022/07/24 00:29:28;;;;;;;6.93;5.70;;;28.30;52.70;;;;;;5062701;28;20199;-73
2022/07/24 00:31:55;;;;;;;9.67;5.07;;;28.20;52.80;;;;;;5050261;28;20190;-73
2022/07/24 00:34:22;;;;;;;11.53;5.47;;;28.20;52.80;;;;;;5078992;28;20301;-73
2022/07/24 00:36:49;;;;;;;7.67;5.07;;;28.20;53.10;;;;;;5048398;28;20207;-73
2022/07/24 00:39:16;;;;;;;5.87;4.33;;;28.10;53.30;;;;;;5030378;28;20217;-73
2022/07/24 00:41:43;;;;;;;10.10;4.87;;;28.10;53.50;;;;;;5046743;28;20221;-73
2022/07/24 00:44:14;;;;;;;10.97;5.83;;;28.10;53.20;;;;;;5044440;28;20240;-73
2022/07/24 00:46:43;;;;;;;8.70;5.67;;;28.00;51.90;;;;;;5059489;28;20756;-73
2022/07/24 00:49:12;;;;;;;7.93;4.93;;;27.90;50.70;;;;;;5043771;28;20194;-73
2022/07/24 00:51:46;;;;;;;7.70;5.33;;;27.90;50.10;;;;;;5039140;28;20232;-73
2022/07/24 00:54:15;;;;;;;6.27;4.87;;;27.90;50.20;;;;;;5040209;28;20210;-73
2022/07/24 00:56:44;;;;;;;7.07;5.90;;;28.00;50.30;;;;;;5043468;28;20293;-73
2022/07/24 00:59:12;;;;;;;10.60;5.90;;;28.00;49.60;;;;;;5045215;28;20199;-73
2022/07/24 01:01:39;;;;;;;19.20;7.20;;;28.00;49.10;;;;;;5049304;28;20541;-73
2022/07/24 01:04:06;;;;;;;6.80;4.97;;;28.00;49.10;;;;;;5044046;28;20644;-73
2022/07/24 01:06:35;;;;;;;7.93;5.80;;;28.00;50.50;;;;;;5046600;28;20219;-73
2022/07/24 01:09:03;;;;;;;13.60;5.50;;;27.90;49.40;;;;;;5044267;28;20295;-73
2022/07/24 01:11:30;;;;;;;8.47;5.47;;;28.00;49.20;;;;;;5041971;28;20226;-73
2022/07/24 01:13:58;;;;;;;9.33;5.23;;;27.90;50.80;;;;;;5048299;28;20217;-74
2022/07/24 01:16:25;;;;;;;11.00;5.30;;;27.90;50.50;;;;;;5048616;28;20570;-73
2022/07/24 01:18:52;;;;;;;6.23;4.97;;;27.80;50.70;;;;;;5039541;28;20210;-73
2022/07/24 01:21:19;;;;;;;8.57;5.63;;;27.80;51.50;;;;;;5049720;28;20210;-73
2022/07/24 01:23:46;;;;;;;10.50;5.57;;;27.70;52.60;;;;;;5043863;28;20599;-73
2022/07/24 01:26:13;;;;;;;12.23;6.17;;;27.60;53.00;;;;;;5037923;28;20227;-73
2022/07/24 01:28:40;;;;;;;8.03;4.90;;;27.50;53.40;;;;;;5047771;28;20195;-73
2022/07/24 01:31:07;;;;;;;8.97;5.60;;;27.50;53.90;;;;;;5046257;28;20209;-73
2022/07/24 01:33:35;;;;;;;7.30;5.67;;;27.50;54.00;;;;;;5041531;28;20584;-73
2022/07/24 01:36:02;;;;;;;8.23;5.33;;;27.30;53.90;;;;;;5045133;28;20214;-73
2022/07/24 01:38:29;;;;;;;7.33;5.73;;;27.20;54.60;;;;;;5041420;28;20293;-73
2022/07/24 01:40:56;;;;;;;9.87;5.37;;;27.20;55.20;;;;;;5044698;28;20194;-73
2022/07/24 01:43:23;;;;;;;9.60;5.63;;;27.10;55.30;;;;;;5040656;28;20210;-73
2022/07/24 01:45:50;;;;;;;8.57;5.47;;;27.00;55.50;;;;;;5037871;28;20209;-73
2022/07/24 01:48:17;;;;;;;6.87;5.17;;;26.90;55.80;;;;;;5042202;28;20197;-73
2022/07/24 01:50:44;;;;;;;8.10;5.70;;;26.90;56.20;;;;;;5041426;28;20421;-73
2022/07/24 01:53:11;;;;;;;7.63;5.03;;;26.80;56.60;;;;;;5042916;28;20267;-73
2022/07/24 01:55:39;;;;;;;6.43;5.77;;;26.80;56.70;;;;;;5043850;28;20213;-73
2022/07/24 01:58:06;;;;;;;10.23;5.70;;;26.70;56.90;;;;;;5044500;28;20209;-73
2022/07/24 02:00:34;;;;;;;6.87;5.80;;;26.70;57.00;;;;;;5038334;28;20644;-73
2022/07/24 02:03:01;;;;;;;10.07;6.13;;;26.60;57.40;;;;;;5041159;28;20193;-73
2022/07/24 02:05:28;;;;;;;10.43;5.43;;;26.60;58.00;;;;;;5043163;28;20292;-73
2022/07/24 02:07:57;;;;;;;5.83;5.23;;;26.50;58.00;;;;;;5040464;28;20580;-73
2022/07/24 02:10:26;;;;;;;8.50;5.67;;;26.50;58.40;;;;;;5042762;28;20213;-73
2022/07/24 02:12:53;;;;;;;6.10;5.40;;;26.40;58.70;;;;;;5040641;28;20206;-73
2022/07/24 02:15:21;;;;;;;7.10;4.90;;;26.40;58.90;;;;;;5042268;28;20623;-73
2022/07/24 02:17:50;;;;;;;9.73;5.37;;;26.30;59.20;;;;;;5042254;28;20203;-73
2022/07/24 02:20:18;;;;;;;8.30;6.13;;;26.30;59.40;;;;;;5038283;28;20212;-73
2022/07/24 02:22:46;;;;;;;8.23;5.27;;;26.30;59.60;;;;;;5038746;28;20268;-73
2022/07/24 02:25:14;;;;;;;14.97;6.30;;;26.20;59.40;;;;;;5041801;28;20203;-73
2022/07/24 02:27:41;;;;;;;10.53;5.80;;;26.20;59.80;;;;;;5040116;28;20249;-73
2022/07/24 02:30:12;;;;;;;8.10;6.13;;;26.20;60.30;;;;;;5041151;28;20649;-73
2022/07/24 02:32:40;;;;;;;10.87;5.53;;;26.10;60.50;;;;;;5043700;28;20199;-73
2022/07/24 02:35:07;;;;;;;8.63;6.00;;;26.10;60.50;;;;;;5039987;28;20291;-73
2022/07/24 02:37:39;;;;;;;8.67;5.87;;;26.10;60.40;;;;;;5047740;28;20772;-73
2022/07/24 02:40:08;;;;;;;7.83;5.20;;;26.10;60.60;;;;;;5045683;28;20634;-73
2022/07/24 02:42:36;;;;;;;11.43;5.83;;;26.10;60.60;;;;;;5046424;28;20199;-73
2022/07/24 02:45:04;;;;;;;9.33;6.17;;;26.10;60.60;;;;;;5044383;28;20205;-73
2022/07/24 02:47:31;;;;;;;8.70;6.57;;;26.00;60.90;;;;;;5038904;28;20219;-73
2022/07/24 02:49:59;;;;;;;9.97;5.90;;;26.10;61.30;;;;;;5049069;28;20636;-73
2022/07/24 02:52:26;;;;;;;7.70;6.70;;;26.00;61.00;;;;;;5047840;28;20775;-73
2022/07/24 02:54:53;;;;;;;10.60;6.00;;;26.00;60.90;;;;;;5052021;28;20213;-73
2022/07/24 02:57:20;;;;;;;13.30;6.20;;;26.00;60.20;;;;;;5048011;28;20668;-73
2022/07/24 02:59:51;;;;;;;8.17;6.23;;;26.00;60.30;;;;;;5044654;28;20541;-73
2022/07/24 03:02:19;;;;;;;6.40;5.77;;;26.00;60.50;;;;;;5045973;28;20553;-73
2022/07/24 03:04:47;;;;;;;9.33;5.80;;;26.00;60.50;;;;;;5049262;28;20302;-73
2022/07/24 03:07:14;;;;;;;9.53;5.93;;;26.00;60.50;;;;;;5037601;28;20569;-73
2022/07/24 03:09:42;;;;;;;7.27;6.00;;;25.90;60.40;;;;;;5045999;28;20186;-73
2022/07/24 03:12:09;;;;;;;13.73;6.40;;;25.90;60.70;;;;;;5044140;28;20232;-73
2022/07/24 03:14:37;;;;;;;9.77;6.30;;;25.90;61.10;;;;;;5036209;28;20702;-73
2022/07/24 03:17:05;;;;;;;10.07;5.83;;;25.90;61.00;;;;;;5037767;28;20765;-73
2022/07/24 03:19:32;;;;;;;12.53;6.17;;;25.90;60.50;;;;;;5044313;28;20600;-73
2022/07/24 03:21:59;;;;;;;8.07;6.07;;;25.80;60.40;;;;;;5038188;28;20212;-73
2022/07/24 03:24:26;;;;;;;9.50;6.27;;;25.80;60.50;;;;;;5039688;28;20197;-73
2022/07/24 03:26:53;;;;;;;6.23;5.60;;;25.80;60.50;;;;;;5037560;28;20246;-73
2022/07/24 03:29:20;;;;;;;7.40;5.97;;;25.80;60.50;;;;;;5041155;28;20627;-73
2022/07/24 03:31:47;;;;;;;9.20;6.03;;;25.80;60.80;;;;;;5041540;28;20209;-73
2022/07/24 03:34:15;;;;;;;11.50;6.63;;;25.80;60.70;;;;;;5042318;28;20397;-73
2022/07/24 03:36:42;;;;;;;8.43;6.70;;;25.80;60.80;;;;;;5042312;28;20217;-73
2022/07/24 03:39:09;;;;;;;11.60;6.77;;;25.80;60.50;;;;;;5041099;28;20204;-73
2022/07/24 03:41:36;;;;;;;10.43;6.47;;;25.80;60.90;;;;;;5040093;28;20538;-73
2022/07/24 03:44:03;;;;;;;7.80;6.03;;;25.80;61.00;;;;;;5048819;28;20273;-73
2022/07/24 03:46:30;;;;;;;7.17;6.47;;;25.80;60.30;;;;;;5037952;28;20219;-73
2022/07/24 03:48:58;;;;;;;11.33;7.00;;;25.80;60.30;;;;;;5039913;28;20290;-73
2022/07/24 03:51:25;;;;;;;7.07;6.37;;;25.70;60.60;;;;;;5041498;28;20226;-73
2022/07/24 03:53:53;;;;;;;7.43;6.20;;;25.80;61.00;;;;;;5042315;28;20259;-73
2022/07/24 03:56:21;;;;;;;10.17;7.00;;;25.80;61.40;;;;;;5036193;28;20222;-73
2022/07/24 03:58:52;;;;;;;11.27;6.03;;;25.80;61.40;;;;;;5043227;28;20203;-73
2022/07/24 04:01:20;;;;;;;6.87;5.73;;;25.80;61.10;;;;;;5038342;28;20540;-73
2022/07/24 04:03:48;;;;;;;9.13;6.33;;;25.80;60.90;;;;;;5037860;28;20200;-73
2022/07/24 04:06:15;;;;;;;10.97;6.53;;;25.80;60.40;;;;;;5042164;28;20212;-73
2022/07/24 04:08:42;;;;;;;9.47;6.70;;;25.80;60.00;;;;;;5043609;28;20293;-73
2022/07/24 04:11:10;;;;;;;8.37;6.77;;;25.80;61.20;;;;;;5040112;28;20207;-73
2022/07/24 04:13:37;;;;;;;11.87;6.20;;;25.70;61.00;;;;;;5042491;28;20201;-73
2022/07/24 04:16:09;;;;;;;10.93;6.83;;;25.80;61.20;;;;;;5037440;28;20203;-73
2022/07/24 04:18:36;;;;;;;11.23;6.20;;;25.80;61.40;;;;;;5036591;28;20235;-73
2022/07/24 04:21:03;;;;;;;8.70;6.30;;;25.80;61.20;;;;;;5040979;28;20547;-73
2022/07/24 04:23:30;;;;;;;8.63;6.70;;;25.80;61.50;;;;;;5044527;28;20641;-73
2022/07/24 04:25:57;;;;;;;11.93;6.47;;;25.80;61.90;;;;;;5051799;28;20204;-72
2022/07/24 04:28:25;;;;;;;14.43;6.90;;;25.80;62.10;;;;;;5050388;28;20229;-72
2022/07/24 04:30:52;;;;;;;9.20;6.67;;;25.80;61.50;;;;;;5058958;28;20242;-72
2022/07/24 04:33:19;;;;;;;6.80;6.13;;;25.90;61.70;;;;;;5049266;28;20228;-72
2022/07/24 04:35:46;;;;;;;8.53;7.43;;;25.90;62.00;;;;;;5049273;28;20210;-72
2022/07/24 04:38:13;;;;;;;8.23;6.93;;;26.00;62.10;;;;;;5044838;28;20286;-72
2022/07/24 04:40:41;;;;;;;10.40;6.70;;;26.00;61.70;;;;;;5044807;28;20204;-72
2022/07/24 04:43:09;;;;;;;8.37;6.67;;;26.10;61.30;;;;;;5049252;28;20216;-72
2022/07/24 04:45:38;;;;;;;10.70;7.37;;;26.10;61.30;;;;;;5044923;28;20541;-72
2022/07/24 04:48:05;;;;;;;7.80;6.77;;;26.20;61.20;;;;;;5048347;28;20234;-72
2022/07/24 04:50:33;;;;;;;10.00;7.37;;;26.20;61.00;;;;;;5045224;28;20225;-73
2022/07/24 04:53:00;;;;;;;12.83;7.00;;;26.30;60.90;;;;;;5044548;28;20299;-73
2022/07/24 04:55:28;;;;;;;14.43;6.80;;;26.30;60.60;;;;;;5040701;28;20215;-73
2022/07/24 04:57:55;;;;;;;10.37;7.00;;;26.40;60.60;;;;;;5041114;28;20572;-73
2022/07/24 05:00:22;;;;;;;7.03;6.33;;;26.40;60.40;;;;;;5044040;28;20369;-73
2022/07/24 05:02:49;;;;;;;7.57;6.67;;;26.50;60.10;;;;;;5044079;28;20206;-73
2022/07/24 05:05:16;;;;;;;9.73;7.03;;;26.60;59.60;;;;;;5043334;28;20551;-73
2022/07/24 05:07:43;;;;;;;10.77;8.00;;;26.60;59.70;;;;;;5043276;28;20225;-73
2022/07/24 05:10:10;;;;;;;9.70;6.50;;;26.70;60.10;;;;;;5033149;28;20207;-73
2022/07/24 05:12:37;;;;;;;15.80;6.97;;;26.80;60.00;;;;;;5031025;28;20203;-73
2022/07/24 05:15:06;;;;;;;19.93;7.77;;;26.80;59.40;;;;;;5043001;28;20213;-73
2022/07/24 05:17:37;;;;;;;10.97;7.90;;;26.90;59.20;;;;;;5041836;28;20311;-73
2022/07/24 05:20:05;;;;;;;16.30;8.50;;;27.00;59.00;;;;;;5042298;28;20536;-72
2022/07/24 05:22:32;;;;;;;13.10;8.37;;;27.20;59.00;;;;;;5043966;28;20203;-72
2022/07/24 05:24:59;;;;;;;20.33;10.33;;;27.30;58.80;;;;;;5044548;28;20209;-72
2022/07/24 05:27:26;;;;;;;21.47;9.50;;;27.30;58.40;;;;;;5045664;28;20678;-73
2022/07/24 05:29:53;;;;;;;20.97;9.17;;;27.50;58.40;;;;;;5046673;28;20301;-73
2022/07/24 05:32:20;;;;;;;13.13;8.57;;;27.60;58.20;;;;;;5042037;28;20209;-73
2022/07/24 05:34:47;;;;;;;18.33;8.83;;;27.70;57.90;;;;;;5042145;28;20203;-73
2022/07/24 05:37:15;;;;;;;9.40;7.23;;;27.90;57.80;;;;;;5040761;28;20288;-73
2022/07/24 05:39:42;;;;;;;11.37;8.43;;;28.00;57.70;;;;;;5046155;28;20229;-73
2022/07/24 05:42:09;;;;;;;10.40;7.10;;;28.20;57.60;;;;;;5043603;28;20210;-73
2022/07/24 05:44:37;;;;;;;12.80;8.13;;;28.40;57.50;;;;;;5048508;28;20217;-73
2022/07/24 05:47:04;;;;;;;11.90;7.33;;;28.60;57.00;;;;;;5046160;28;20219;-72
2022/07/24 05:49:34;;;;;;;7.67;6.47;;;28.70;56.20;;;;;;5040538;28;20223;-72
2022/07/24 05:52:02;;;;;;;11.10;7.67;;;28.80;55.90;;;;;;5046853;28;20198;-72
2022/07/24 05:54:35;;;;;;;9.90;6.50;;;28.90;55.70;;;;;;5039153;28;20225;-72
2022/07/24 05:57:02;;;;;;;7.30;6.60;;;29.00;55.60;;;;;;5050129;28;20261;-73
2022/07/24 05:59:29;;;;;;;7.83;7.03;;;29.10;54.90;;;;;;5042180;28;20215;-73
2022/07/24 06:01:56;;;;;;;19.00;7.13;;;29.10;54.50;;;;;;5040248;28;20648;-73
2022/07/24 06:04:24;;;;;;;7.20;6.50;;;29.20;54.90;;;;;;5046159;28;20203;-73
2022/07/24 06:06:51;;;;;;;9.97;6.40;;;29.20;55.20;;;;;;5046600;28;20198;-73
2022/07/24 06:09:18;;;;;;;7.80;7.00;;;29.30;55.10;;;;;;5043978;28;20278;-73
2022/07/24 06:11:45;;;;;;;8.60;7.70;;;29.30;54.90;;;;;;5037546;28;20207;-73
2022/07/24 06:14:12;;;;;;;12.47;7.37;;;29.40;54.70;;;;;;5041650;28;20199;-73
2022/07/24 06:16:39;;;;;;;11.17;7.07;;;29.50;54.40;;;;;;5044470;28;20552;-73
2022/07/24 06:19:06;;;;;;;12.23;7.20;;;29.50;54.40;;;;;;5077155;28;20321;-73
2022/07/24 06:21:34;;;;;;;12.00;7.37;;;29.50;54.40;;;;;;5048023;28;20592;-73
2022/07/24 06:24:01;;;;;;;13.40;7.53;;;29.60;54.50;;;;;;5022154;28;20203;-73
2022/07/24 06:26:28;;;;;;;10.47;7.40;;;29.70;54.80;;;;;;5040672;28;20237;-73
2022/07/24 06:29:04;;;;;;;10.47;7.70;;;29.80;54.80;;;;;;5048483;28;20546;-73
2022/07/24 06:31:44;;;;;;;13.00;7.27;;;29.90;55.30;;;;;;5040429;28;20544;-73
2022/07/24 06:34:11;;;;;;;11.57;7.60;;;30.00;55.90;;;;;;5043279;28;20202;-73
2022/07/24 06:36:38;;;;;;;9.93;7.73;;;30.10;56.10;;;;;;5043542;28;20216;-72
2022/07/24 06:39:05;;;;;;;8.97;7.60;;;30.30;56.00;;;;;;5041007;28;20207;-72
2022/07/24 06:41:33;;;;;;;9.97;7.40;;;30.40;55.90;;;;;;5045004;28;20202;-72
2022/07/24 06:44:00;;;;;;;8.10;7.30;;;30.60;55.80;;;;;;5039407;28;20290;-72
2022/07/24 06:46:28;;;;;;;6.90;5.83;;;30.80;55.70;;;;;;5039419;28;20199;-72
2022/07/24 06:48:55;;;;;;;7.23;5.77;;;30.90;55.10;;;;;;5039201;28;20577;-73
2022/07/24 06:51:22;;;;;;;6.53;5.63;;;31.00;54.50;;;;;;5044321;28;20634;-73
2022/07/24 06:53:49;;;;;;;7.63;5.93;;;31.10;54.50;;;;;;5039279;28;20217;-73
2022/07/24 06:56:16;;;;;;;7.40;5.57;;;31.30;53.90;;;;;;5041421;28;20203;-72
2022/07/24 06:58:43;;;;;;;9.07;5.63;;;31.30;53.70;;;;;;5040965;28;20211;-72
2022/07/24 07:01:11;;;;;;;6.70;6.07;;;31.40;53.70;;;;;;5048898;28;20217;-72
2022/07/24 07:03:38;;;;;;;6.27;5.27;;;31.50;53.70;;;;;;5042866;28;20381;-72
2022/07/24 07:06:05;;;;;;;7.17;6.13;;;31.60;53.60;;;;;;5039050;28;20278;-72
2022/07/24 07:08:32;;;;;;;5.80;5.20;;;31.70;53.10;;;;;;5042567;28;20230;-72
2022/07/24 07:11:00;;;;;;;6.10;5.30;;;31.90;52.90;;;;;;5043711;28;20206;-72
2022/07/24 07:13:27;;;;;;;7.07;5.83;;;32.00;52.20;;;;;;5044078;28;20209;-72
2022/07/24 07:15:54;;;;;;;8.43;6.07;;;32.10;52.30;;;;;;5040786;28;20211;-72
2022/07/24 07:18:21;;;;;;;6.40;5.30;;;32.30;52.60;;;;;;5040687;28;20198;-72
2022/07/24 07:20:53;;;;;;;7.27;6.07;;;32.40;52.20;;;;;;5036000;28;20211;-73
2022/07/24 07:23:26;;;;;;;7.07;5.20;;;32.40;51.60;;;;;;5027745;28;20621;-73
2022/07/24 07:25:57;;;;;;;6.43;5.10;;;32.50;51.50;;;;;;5047313;28;20303;-73
2022/07/24 07:28:24;;;;;;;5.53;5.00;;;32.50;51.60;;;;;;5048276;28;20218;-73
2022/07/24 07:30:51;;;;;;;7.67;4.60;;;32.60;51.40;;;;;;5025785;28;20198;-73
2022/07/24 07:33:18;;;;;;;5.50;4.80;;;32.70;51.30;;;;;;5038907;28;20209;-73
2022/07/24 07:35:45;;;;;;;8.53;4.80;;;32.80;51.30;;;;;;5042083;28;20206;-73
2022/07/24 07:38:13;;;;;;;4.70;3.90;;;32.90;50.80;;;;;;5037965;28;20202;-73
2022/07/24 07:40:46;;;;;;;5.07;4.10;;;33.00;49.70;;;;;;5042896;28;20293;-73
2022/07/24 07:43:13;;;;;;;4.30;3.93;;;33.10;49.20;;;;;;5035049;28;20213;-73
2022/07/24 07:45:40;;;;;;;4.33;3.93;;;33.20;49.00;;;;;;5044136;28;20212;-72
2022/07/24 07:48:07;;;;;;;4.63;4.13;;;33.30;47.80;;;;;;5039112;28;20226;-73
2022/07/24 07:50:34;;;;;;;4.37;3.97;;;33.40;47.30;;;;;;5043027;28;20202;-73
2022/07/24 07:53:01;;;;;;;4.50;3.67;;;33.40;47.20;;;;;;5042678;28;20209;-73
2022/07/24 07:55:29;;;;;;;3.63;3.30;;;33.40;47.70;;;;;;5043582;28;20582;-73
2022/07/24 07:57:56;;;;;;;4.03;3.70;;;33.60;47.20;;;;;;5046222;28;20220;-73
2022/07/24 08:00:33;;;;;;;3.60;3.30;;;33.60;46.30;;;;;;5044115;28;20199;-73
2022/07/24 08:03:00;;;;;;;6.93;3.93;;;33.60;46.10;;;;;;5038366;28;20256;-73
2022/07/24 08:05:29;;;;;;;3.70;3.37;;;33.60;46.60;;;;;;5044056;28;20215;-73
2022/07/24 08:07:56;;;;;;;6.03;3.70;;;33.60;46.00;;;;;;5035534;28;20223;-73
2022/07/24 08:10:24;;;;;;;4.67;4.03;;;33.60;46.30;;;;;;5051083;28;20202;-73
2022/07/24 08:12:51;;;;;;;6.87;5.00;;;33.70;45.90;;;;;;5044717;28;20318;-73
2022/07/24 08:15:18;;;;;;;6.47;3.93;;;33.80;45.80;;;;;;5046941;28;20199;-73
2022/07/24 08:17:50;;;;;;;3.97;3.67;;;33.80;45.60;;;;;;5042801;28;20217;-73
2022/07/24 08:20:17;;;;;;;7.43;3.67;;;33.90;45.20;;;;;;5043985;28;20221;-73
2022/07/24 08:22:44;;;;;;;6.43;3.77;;;34.10;44.20;;;;;;5044535;28;20207;-73
2022/07/24 08:25:11;;;;;;;4.20;3.90;;;34.10;44.80;;;;;;5044028;28;20203;-73
2022/07/24 08:27:46;;;;;;;5.50;3.87;;;34.20;44.00;;;;;;5041589;28;20296;-73
2022/07/24 08:30:13;;;;;;;4.03;3.63;;;34.30;44.20;;;;;;5045933;28;20217;-73
2022/07/24 08:32:40;;;;;;;4.87;4.37;;;34.30;44.20;;;;;;5049084;28;20554;-73
2022/07/24 08:35:08;;;;;;;8.03;4.10;;;34.30;44.40;;;;;;5041090;28;20203;-73
2022/07/24 08:37:36;;;;;;;4.30;3.90;;;34.40;43.50;;;;;;5042507;28;20195;-73
2022/07/24 08:40:05;;;;;;;4.10;3.80;;;34.40;43.60;;;;;;5051058;28;20203;-73
2022/07/24 08:42:32;;;;;;;6.07;4.03;;;34.40;43.80;;;;;;5046134;28;20207;-73
2022/07/24 08:44:59;;;;;;;4.23;3.93;;;34.50;43.60;;;;;;5040362;28;20627;-73
2022/07/24 08:47:29;;;;;;;4.70;3.70;;;34.50;43.40;;;;;;5049432;28;20226;-73
2022/07/24 08:49:58;;;;;;;4.40;4.00;;;34.60;44.00;;;;;;5049125;28;20194;-73
2022/07/24 08:52:26;;;;;;;5.07;4.37;;;34.70;43.90;;;;;;5051137;28;20260;-73
2022/07/24 08:54:54;;;;;;;7.93;4.30;;;34.80;43.40;;;;;;5051467;28;20630;-73
2022/07/24 08:57:21;;;;;;;6.20;4.37;;;34.80;43.10;;;;;;5051195;28;20702;-73
2022/07/24 08:59:48;;;;;;;4.90;4.00;;;34.80;43.00;;;;;;5049797;28;20211;-73
2022/07/24 09:02:15;;;;;;;6.20;4.33;;;34.80;44.00;;;;;;5048225;28;20563;-73
2022/07/24 09:04:46;;;;;;;4.67;4.27;;;35.00;43.90;;;;;;5046687;28;20260;-73
2022/07/24 09:07:16;;;;;;;8.73;4.70;;;35.00;42.70;;;;;;5047059;28;20544;-73
2022/07/24 09:09:57;;;;;;;4.87;4.00;;;35.00;43.50;;;;;;5046528;28;20226;-73
2022/07/24 09:12:25;;;;;;;5.27;4.40;;;35.10;43.60;;;;;;5041105;28;20199;-73
2022/07/24 09:14:52;;;;;;;5.10;4.13;;;35.30;43.10;;;;;;5041301;28;20194;-73
2022/07/24 09:17:20;;;;;;;6.70;4.30;;;35.30;43.60;;;;;;5041653;28;20294;-73
2022/07/24 09:19:52;;;;;;;4.53;4.03;;;35.40;42.40;;;;;;5047619;28;20215;-73
2022/07/24 09:22:32;;;;;;;6.63;4.63;;;35.40;42.50;;;;;;5042306;28;20561;-73
2022/07/24 09:25:09;;;;;;;6.03;4.40;;;35.50;43.40;;;;;;5042315;28;20229;-73
2022/07/24 09:27:57;;;;;;;6.63;4.50;;;35.60;42.10;;;;;;5042288;28;20254;-73
2022/07/24 09:30:37;;;;;;;6.67;4.87;;;35.60;42.30;;;;;;5041766;28;20226;-73
2022/07/24 09:33:12;;;;;;;5.97;4.90;;;35.80;42.70;;;;;;5049905;28;20273;-73
2022/07/24 09:35:51;;;;;;;5.20;4.70;;;35.80;42.40;;;;;;5038288;28;20635;-73
2022/07/24 09:38:25;;;;;;;5.30;4.80;;;35.90;42.30;;;;;;5041424;28;20210;-73
2022/07/24 09:40:54;;;;;;;7.07;4.73;;;35.90;42.10;;;;;;5040175;28;20694;-73
2022/07/24 09:43:24;;;;;;;5.90;4.33;;;36.10;42.10;;;;;;5041279;28;20202;-73
2022/07/24 09:46:02;;;;;;;4.97;4.53;;;36.20;41.90;;;;;;5043188;28;20221;-73
2022/07/24 09:48:56;;;;;;;7.80;4.50;;;36.30;42.30;;;;;;5042551;28;20216;-73
2022/07/24 09:51:25;;;;;;;7.83;5.70;;;36.30;41.40;;;;;;5042622;28;20195;-73
2022/07/24 09:53:58;;;;;;;10.47;4.93;;;36.20;41.90;;;;;;5041801;28;20550;-73
2022/07/24 09:56:27;;;;;;;4.93;4.60;;;36.30;42.30;;;;;;5037450;28;20568;-73
2022/07/24 09:58:59;;;;;;;8.13;4.73;;;36.30;41.90;;;;;;5041603;28;20754;-73
2022/07/24 10:01:29;;;;;;;5.30;4.90;;;36.40;41.80;;;;;;5042293;28;20662;-73
2022/07/24 10:03:58;;;;;;;5.43;4.67;;;36.50;41.00;;;;;;5040707;28;20230;-73
2022/07/24 10:06:26;;;;;;;5.60;4.90;;;36.50;40.90;;;;;;5039534;28;20215;-74
2022/07/24 10:08:55;;;;;;;6.30;4.95;;;36.60;40.80;;;;;;5045362;28;20219;-73
2022/07/24 10:11:23;;;;;;;5.67;4.67;;;36.60;40.30;;;;;;5038787;28;20226;-73
2022/07/24 10:13:51;;;;;;;13.00;5.35;;;36.60;40.90;;;;;;5046618;28;20220;-73
2022/07/24 10:16:29;;;;;;;6.30;4.80;;;36.70;40.90;;;;;;5043470;28;20214;-73
2022/07/24 10:18:58;;;;;;;5.93;4.67;;;36.80;41.00;;;;;;5036811;28;20217;-73
2022/07/24 10:21:30;;;;;;;6.22;4.97;;;36.90;40.90;;;;;;5043510;28;20206;-73
2022/07/24 10:24:07;;;;;;;10.38;5.50;;;37.00;40.90;;;;;;5042059;28;20237;-73
2022/07/24 10:26:37;;;;;;;7.10;4.93;;;37.10;40.30;;;;;;5044346;28;20252;-73
2022/07/24 10:29:11;;;;;;;5.32;4.82;;;37.20;40.20;;;;;;5044306;28;20288;-73
2022/07/24 10:31:48;;;;;;;6.78;4.97;;;37.30;39.30;;;;;;5042234;28;20297;-73
2022/07/24 10:34:30;;;;;;;7.30;4.70;;;37.40;39.90;;;;;;5039082;28;20252;-74
2022/07/24 10:37:21;;;;;;;7.65;5.10;;;37.40;40.40;;;;;;5048282;28;20194;-74
2022/07/24 10:40:30;;;;;;;6.13;4.97;;;37.50;40.30;;;;;;5042382;28;20234;-73
2022/07/24 10:43:09;;;;;;;7.65;5.05;;;37.50;40.80;;;;;;5050951;28;20650;-73
2022/07/24 10:45:46;;;;;;;8.63;5.38;;;37.70;40.10;;;;;;5039796;28;20321;-73
2022/07/24 10:48:20;;;;;;;7.22;5.30;;;37.80;39.70;;;;;;5041806;28;20568;-73
2022/07/24 10:51:00;;;;;;;5.47;4.63;;;37.90;38.70;;;;;;5038401;28;20230;-74
2022/07/24 10:53:38;;;;;;;6.63;4.80;;;37.90;38.60;;;;;;5042499;28;20198;-74
2022/07/24 10:56:26;;;;;;;8.98;5.03;;;37.90;37.60;;;;;;5041185;28;20669;-73
2022/07/24 10:59:09;;;;;;;5.43;4.93;;;37.80;38.30;;;;;;5058556;28;20294;-74
2022/07/24 11:01:50;;;;;;;5.38;4.97;;;37.90;38.20;;;;;;5042402;28;20222;-73
2022/07/24 11:04:22;;;;;;;4.63;4.18;;;38.00;38.40;;;;;;5030219;28;20210;-73
2022/07/24 11:06:51;;;;;;;7.03;5.00;;;38.10;37.90;;;;;;5040668;28;20222;-73
2022/07/24 11:09:21;;;;;;;6.80;5.47;;;38.10;37.40;;;;;;5041089;28;20215;-73
2022/07/24 11:11:51;;;;;;;5.43;4.82;;;38.00;37.60;;;;;;5038573;28;20217;-74
2022/07/24 11:14:38;;;;;;;5.40;5.00;;;38.00;36.40;;;;;;5043074;28;20203;-73
2022/07/24 11:17:38;;;;;;;7.05;5.10;;;38.00;37.20;;;;;;5049028;28;20558;-73
2022/07/24 11:20:10;;;;;;;5.78;5.28;;;38.10;35.90;;;;;;5043494;28;20206;-73
2022/07/24 11:22:44;;;;;;;6.13;5.40;;;38.20;35.80;;;;;;5044370;28;20221;-74
2022/07/24 11:25:30;;;;;;;5.70;5.28;;;38.30;36.10;;;;;;5038065;28;20638;-73
2022/07/24 11:28:05;;;;;;;10.32;4.63;;;38.20;36.30;;;;;;5038982;28;20626;-73
2022/07/24 11:30:32;;;;;;;8.57;5.40;;;38.30;35.90;;;;;;5036368;28;20228;-73
2022/07/24 11:33:00;;;;;;;5.18;4.78;;;38.30;35.70;;;;;;5037205;28;20203;-73
2022/07/24 11:35:34;;;;;;;5.90;4.75;;;38.30;35.70;;;;;;5035561;28;20521;-73
2022/07/24 11:38:05;;;;;;;7.65;5.13;;;38.40;35.30;;;;;;5041982;28;20187;-73
2022/07/24 11:40:34;;;;;;;5.82;5.28;;;38.40;36.30;;;;;;5045308;28;20282;-73
2022/07/24 11:43:05;;;;;;;5.57;5.03;;;38.40;35.80;;;;;;5048534;28;20221;-73
2022/07/24 11:45:38;;;;;;;8.35;5.05;;;38.40;35.70;;;;;;5040035;28;20206;-73
2022/07/24 11:48:06;;;;;;;5.93;5.43;;;38.40;35.90;;;;;;5039199;28;20229;-73
2022/07/24 11:50:34;;;;;;;5.65;5.15;;;38.30;36.10;;;;;;5018640;28;20245;-73
2022/07/24 11:53:07;;;;;;;6.03;5.30;;;38.30;35.30;;;;;;5038475;28;20217;-73
2022/07/24 11:55:34;;;;;;;7.72;5.07;;;38.30;35.40;;;;;;5045425;28;20297;-73
2022/07/24 11:58:02;;;;;;;8.00;4.88;;;38.40;36.40;;;;;;5040235;28;20212;-73
2022/07/24 12:00:49;;;;;;;6.80;5.53;;;38.50;36.60;;;;;;5043560;28;20225;-73
2022/07/24 12:03:17;;;;;;;6.05;4.82;;;38.70;35.70;;;;;;5040618;28;20203;-73
2022/07/24 12:05:46;;;;;;;8.23;5.65;;;38.70;36.00;;;;;;5044554;28;20218;-73
2022/07/24 12:08:26;;;;;;;5.47;4.82;;;38.80;35.50;;;;;;5047149;28;20211;-73
2022/07/24 12:10:59;;;;;;;4.95;4.55;;;38.80;35.20;;;;;;5037981;28;20215;-73
2022/07/24 12:13:29;;;;;;;6.10;5.05;;;38.80;35.20;;;;;;5044260;28;20199;-73
2022/07/24 12:15:58;;;;;;;5.68;4.82;;;38.80;35.40;;;;;;5038487;28;20208;-73
2022/07/24 12:18:25;;;;;;;6.35;4.97;;;38.80;35.20;;;;;;5042895;28;20214;-73
2022/07/24 12:21:01;;;;;;;5.95;5.35;;;38.70;35.40;;;;;;5040470;28;20252;-73
2022/07/24 12:23:29;;;;;;;6.13;5.45;;;38.70;35.80;;;;;;5045374;28;20542;-73
2022/07/24 12:25:57;;;;;;;6.50;5.20;;;38.70;35.60;;;;;;5041128;28;20203;-73
2022/07/24 12:28:24;;;;;;;5.65;5.15;;;38.70;35.00;;;;;;5042635;28;20238;-73
2022/07/24 12:30:54;;;;;;;7.88;5.43;;;38.60;35.30;;;;;;5035470;28;20213;-73
2022/07/24 12:33:26;;;;;;;5.95;5.30;;;38.60;35.50;;;;;;5041859;28;20561;-73
2022/07/24 12:36:00;;;;;;;7.30;6.10;;;38.60;35.50;;;;;;5041251;28;20646;-73
2022/07/24 12:38:34;;;;;;;4.75;4.35;;;38.60;35.50;;;;;;5044086;28;20213;-73
2022/07/24 12:41:09;;;;;;;5.70;5.20;;;38.60;35.60;;;;;;5039628;28;20203;-73
2022/07/24 12:43:51;;;;;;;6.72;5.50;;;38.70;35.70;;;;;;5042270;28;20199;-73
2022/07/24 12:46:29;;;;;;;9.27;5.20;;;38.70;36.10;;;;;;5049208;28;20385;-73
2022/07/24 12:49:02;;;;;;;5.55;5.15;;;38.70;35.70;;;;;;5043880;28;20655;-73
2022/07/24 12:51:54;;;;;;;6.40;5.50;;;38.70;36.10;;;;;;5047628;28;20199;-73
2022/07/24 12:54:33;;;;;;;7.68;6.00;;;38.80;35.90;;;;;;5050097;28;20635;-74
2022/07/24 12:57:10;;;;;;;6.72;5.55;;;38.70;35.80;;;;;;5043594;28;20206;-73
2022/07/24 12:59:45;;;;;;;5.85;5.30;;;38.60;35.20;;;;;;5047405;28;20517;-73